Hlavní strana
METAR-TAF:

METAR-TAF

Letiště :

Talladega, Alabama, Spojené státy americké

zeměpisná šířka: 33-34-10N, zeměpisná délka: 086-03-04W, výška: 160 m

Aktuální stav počasí

Zpráva byla vytvořena před 27 minutami, v 10:35 UTC
Bezvětří
Teplota 20°C
Vlhkost vzduchu 100%
Tlak 1021 hPa
Viditelnost: 16.1 km
Jasno

METAR: KASN 241035Z AUTO 00000KT 10SM CLR 20/20 A3016 RMK AO2 T01990197

Čas: 06:02 (11:02 UTC)

Předpověď počasí

Zpráva byla vytvořena před 5 hodinami a 42 minutami, v 05:20 UTC
Předpověď platná od 24 v 06 UTC do 25 v 06 UTC
Severní vítr kt
Viditelnost: 10 km
Skoro jasno ve výšce 6000 ft
Skoro jasno ve výšce 12000 ft
Od 24 v 1500 UTC
Jihozápadní vítr 5 kt
Viditelnost: 10 km
Polojasno ve výšce 6000 ft

TAF: KASN 240520Z 2406/2506 00000KT P6SM FEW060 FEW120 FM241500 23005KT P6SM SCT060

Stav a předpovědi počasí z více než 4 000 letišť (zprávy METAR a TAF).

Červené a žluté tečky na mapě představují dostupné meteorologické stanice.

Když kurzor umístíte na tečku, zobrazí se název stanice.

Pak kliknutím zobrazíte stav a předpověď počasí.

Chcete-li změnit mapu, kliknutím na zelené tlačítko se znaménkem +mapu přiblížíte, kliknutím na zelené tlačítko se znaménkem – mapu oddálíte a kliknutím na zelené šipky přejdete na sousední mapy.


METAR-TAF: